Terminal Aerodrome Forecast
Issued by NWS Goodland, KS

Home | Current Version | Previous Version | Text Only | Print | Product List | Glossary On
Versions: 1 2 3 4 5 6 7 8 9 10 11 12 13 14 15
000
FTUS43 KGLD 172320
TAFGLD
TAF
KGLD 172320Z 1800/1824 VRB05KT P6SM SCT230
     FM180900 16008KT P6SM FEW120 SCT230
     FM181500 16013G20KT P6SM FEW120 SCT230
     FM181800 17017G26KT P6SM SCT130 SCT230
     FM182300 17013KT P6SM FEW130 BKN230=

USA.gov is the U.S. government's official web portal to all federal, state and local government web resources and services.